Rechercher aéroport 
image banner adimage banner ad
image banner ad

SVBE - San Benito

Situé à Zulia, Venezuela

ICAO - SVBE, IATA -

Données fournies par Airmate  

Information générale

Coordonnées: N10°18'48" W72°3'48"
Élévation : 249 feet MSL.
 
Voir autres Aéroports à Zulia

Données opérationnelles

Accessible au public
Heure actuelle UTC:
Heure actuelle locale:
Météo à : SVMC - Maracaibo / La Chinita Intl ( 46 km )
METAR: SVMC 230502Z AUTO 35004KT NCD 27/23 Q1009
TAF: TAF SVMC 221600Z 2218/2318 18006KT 9999 FEW013 TX35/2219Z TN24/2208Z BECMG 2218/2222 19007KT 9999 SCT016
Voir NOTAMs / SUP AIP / TFR affectant cet aéroport [VIEW]
Fréquences de communication: [VIEW]

Pistes:

Identifiant RWYQFULongueur (ft)Largeur (ft)SurfaceLDA (ft)
0200
2000

Coordonnées de l'aéroport

Adresse: Zulia Venezuela

Vue satellite de SVBE